createdAt,value
2018-10-16T00:01:24.104Z,89.43
2018-10-16T00:03:52.320Z,89.56
2018-10-16T00:06:20.657Z,89.79
2018-10-16T00:08:48.816Z,89.95
2018-10-16T00:11:17.066Z,89.81
2018-10-16T00:13:45.242Z,90.05
2018-10-16T00:16:13.450Z,90.30
2018-10-16T00:18:41.636Z,90.28
2018-10-16T00:21:09.791Z,90.15
2018-10-16T00:23:37.925Z,90.65
2018-10-16T00:26:06.342Z,90.48
2018-10-16T00:28:34.620Z,90.71
2018-10-16T00:31:02.780Z,90.99
2018-10-16T00:33:30.935Z,91.38
2018-10-16T00:35:59.139Z,91.36
2018-10-16T00:38:27.436Z,91.46
2018-10-16T00:40:55.635Z,91.73
2018-10-16T00:43:23.784Z,92.31
2018-10-16T00:45:51.973Z,91.96
2018-10-16T00:48:20.135Z,91.74
2018-10-16T00:50:48.300Z,91.82
2018-10-16T00:53:16.473Z,91.64
2018-10-16T00:55:44.763Z,91.50
2018-10-16T00:58:12.926Z,91.50
2018-10-16T01:00:41.257Z,91.02
2018-10-16T01:03:09.404Z,91.28
2018-10-16T01:05:37.733Z,91.01
2018-10-16T01:08:05.940Z,91.15
2018-10-16T01:10:34.088Z,90.96
2018-10-16T01:13:02.231Z,90.92
2018-10-16T01:15:30.439Z,90.95
2018-10-16T01:17:58.716Z,91.65
2018-10-16T01:20:26.843Z,91.85
2018-10-16T01:22:54.997Z,91.23
2018-10-16T01:25:23.164Z,91.10
2018-10-16T01:27:51.619Z,91.37
2018-10-16T01:30:19.864Z,92.89
2018-10-16T01:32:48.055Z,93.50
2018-10-16T01:35:16.171Z,93.77
2018-10-16T01:37:44.351Z,94.53
2018-10-16T01:40:12.543Z,95.04
2018-10-16T01:42:40.701Z,94.95
2018-10-16T01:45:09.552Z,95.06
2018-10-16T01:47:37.679Z,95.29
2018-10-16T01:50:06.168Z,95.13
2018-10-16T01:52:34.515Z,94.82
2018-10-16T01:55:02.733Z,95.07
2018-10-16T01:57:31.100Z,94.99
2018-10-16T01:59:59.676Z,95.00
2018-10-16T02:02:27.953Z,94.45
2018-10-16T02:04:56.129Z,94.02
2018-10-16T02:07:24.335Z,94.00
2018-10-16T02:09:52.488Z,93.61
2018-10-16T02:12:20.730Z,93.41
2018-10-16T02:14:48.940Z,93.58
2018-10-16T02:17:17.033Z,93.39
2018-10-16T02:19:45.267Z,93.60
2018-10-16T02:22:13.403Z,94.12
2018-10-16T02:24:41.585Z,93.61
2018-10-16T02:27:09.790Z,93.76
2018-10-16T02:29:37.924Z,93.77
2018-10-16T02:32:06.523Z,94.08
2018-10-16T02:34:34.728Z,93.67
2018-10-16T02:37:02.895Z,93.24
2018-10-16T02:39:31.063Z,93.13
2018-10-16T02:41:59.264Z,93.21
2018-10-16T02:44:27.584Z,93.34
2018-10-16T02:46:55.787Z,93.22
2018-10-16T02:49:23.939Z,95.29
2018-10-16T02:51:52.143Z,95.41
2018-10-16T02:54:20.333Z,95.32
2018-10-16T02:56:48.546Z,95.44
2018-10-16T02:59:16.672Z,95.23
2018-10-16T03:01:44.842Z,95.85
2018-10-16T03:04:13.084Z,96.20
2018-10-16T03:06:41.227Z,96.46
2018-10-16T03:09:09.919Z,96.69
2018-10-16T03:11:38.106Z,96.80
2018-10-16T03:14:06.401Z,96.52
2018-10-16T03:16:34.631Z,97.01
2018-10-16T03:19:02.804Z,97.10
2018-10-16T03:21:31.013Z,97.22
2018-10-16T03:23:59.185Z,96.83
2018-10-16T03:26:27.316Z,96.51
2018-10-16T03:28:55.448Z,96.31
2018-10-16T03:31:23.751Z,96.14
2018-10-16T03:33:51.955Z,96.60
2018-10-16T03:36:20.121Z,96.63
2018-10-16T03:38:48.397Z,97.36
2018-10-16T03:41:16.585Z,97.42
2018-10-16T03:43:44.896Z,97.07
2018-10-16T03:46:13.095Z,96.66
2018-10-16T03:48:41.348Z,96.41
2018-10-16T03:51:09.545Z,96.52
2018-10-16T03:53:37.793Z,96.45
2018-10-16T03:56:06.097Z,96.34
2018-10-16T03:58:34.221Z,96.39
2018-10-16T04:01:03.495Z,96.22
2018-10-16T04:03:31.699Z,96.31
2018-10-16T04:05:59.940Z,96.24
2018-10-16T04:08:28.159Z,96.18
2018-10-16T04:10:56.552Z,96.96
2018-10-16T04:13:24.860Z,97.42
2018-10-16T04:15:53.019Z,97.57
2018-10-16T04:18:21.248Z,97.87
2018-10-16T04:20:49.411Z,97.97
2018-10-16T04:23:17.698Z,97.63
2018-10-16T04:25:46.061Z,97.61
2018-10-16T04:28:14.275Z,97.33
2018-10-16T04:30:42.409Z,97.33
2018-10-16T04:33:10.632Z,97.06
2018-10-16T04:35:38.821Z,97.21
2018-10-16T04:38:07.140Z,97.30
2018-10-16T04:40:35.339Z,97.31
2018-10-16T04:43:03.622Z,97.28
2018-10-16T04:45:31.784Z,97.35
2018-10-16T04:47:59.907Z,97.49
2018-10-16T04:50:28.065Z,97.49
2018-10-16T04:52:56.238Z,97.60
2018-10-16T04:55:24.554Z,97.58
2018-10-16T04:57:53.121Z,97.64
2018-10-16T05:00:21.340Z,97.53
2018-10-16T05:02:49.496Z,97.84
2018-10-16T05:05:24.799Z,97.68
2018-10-16T05:07:53.096Z,98.21
2018-10-16T05:10:21.909Z,98.38
2018-10-16T05:12:50.296Z,98.56
2018-10-16T05:15:26.867Z,98.87
2018-10-16T05:17:55.470Z,99.05
2018-10-16T05:20:23.740Z,99.38
2018-10-16T05:22:52.000Z,99.32
2018-10-16T05:25:20.422Z,99.10
2018-10-16T05:27:48.729Z,99.33
2018-10-16T05:30:17.195Z,99.43
2018-10-16T05:32:45.435Z,99.10
2018-10-16T05:35:13.621Z,99.51
2018-10-16T05:37:42.247Z,99.52
2018-10-16T05:40:11.381Z,99.55
2018-10-16T05:42:40.106Z,99.58
2018-10-16T05:45:09.797Z,99.41
2018-10-16T05:47:38.324Z,99.70
2018-10-16T05:50:07.612Z,99.64
2018-10-16T05:52:35.812Z,99.22
2018-10-16T05:55:04.091Z,99.30
2018-10-16T05:57:32.240Z,98.87
2018-10-16T06:01:03.712Z,98.17
2018-10-16T06:03:31.992Z,98.01
2018-10-16T06:06:00.169Z,97.89
2018-10-16T06:08:28.401Z,98.15
2018-10-16T06:10:56.587Z,97.93
2018-10-16T06:13:24.945Z,97.71
2018-10-16T06:15:53.279Z,98.02
2018-10-16T06:18:21.513Z,97.86
2018-10-16T06:20:49.758Z,97.96
2018-10-16T06:23:17.900Z,98.35
2018-10-16T06:25:46.043Z,98.57
2018-10-16T06:28:17.183Z,98.55
2018-10-16T06:30:45.433Z,98.78
2018-10-16T06:33:14.294Z,98.39
2018-10-16T06:35:42.420Z,98.29
2018-10-16T06:38:10.567Z,97.72
2018-10-16T06:40:38.911Z,97.11
2018-10-16T06:43:07.172Z,96.25
2018-10-16T06:45:35.532Z,95.53
2018-10-16T06:48:04.048Z,94.89
2018-10-16T06:50:32.036Z,94.80
2018-10-16T06:53:00.227Z,95.30
2018-10-16T06:55:28.400Z,95.52
2018-10-16T06:57:56.584Z,95.72
2018-10-16T07:00:24.773Z,95.77
2018-10-16T07:02:52.876Z,95.14
2018-10-16T07:05:21.249Z,95.06
2018-10-16T07:07:49.540Z,94.54
2018-10-16T07:10:17.766Z,94.47
2018-10-16T07:12:45.907Z,94.07
2018-10-16T07:15:14.189Z,93.90
2018-10-16T07:20:17.143Z,93.12
2018-10-16T07:22:45.340Z,92.71
2018-10-16T07:25:13.483Z,92.32
2018-10-16T07:27:41.647Z,91.55
2018-10-16T07:30:13.271Z,90.64
2018-10-16T07:32:41.372Z,90.17
2018-10-16T07:35:10.363Z,89.88
2018-10-16T07:37:39.503Z,89.48
2018-10-16T07:40:08.678Z,88.67
2018-10-16T07:42:36.835Z,87.74
2018-10-16T07:45:05.600Z,86.98
2018-10-16T07:47:33.829Z,86.37
2018-10-16T07:50:02.046Z,85.89
2018-10-16T07:52:30.220Z,85.80
2018-10-16T07:54:58.496Z,84.87
2018-10-16T07:57:26.724Z,85.15
2018-10-16T07:59:55.059Z,83.82
2018-10-16T08:02:23.339Z,84.01
2018-10-16T08:04:51.719Z,83.71
2018-10-16T08:07:19.962Z,83.43
2018-10-16T08:09:48.184Z,81.13
2018-10-16T08:12:16.416Z,81.22
2018-10-16T08:14:44.737Z,80.94
2018-10-16T08:17:13.031Z,81.10
2018-10-16T08:19:41.564Z,79.63
2018-10-16T08:22:09.747Z,79.66
2018-10-16T08:24:37.946Z,78.82
2018-10-16T08:27:06.113Z,78.73
2018-10-16T08:29:34.418Z,78.16
2018-10-16T08:32:02.725Z,78.95
2018-10-16T08:34:30.862Z,78.91
2018-10-16T08:36:59.316Z,75.91
2018-10-16T08:39:33.469Z,74.53
2018-10-16T08:44:15.874Z,74.02
2018-10-16T08:46:55.457Z,74.37
2018-10-16T08:49:35.003Z,74.20
2018-10-16T08:52:03.299Z,73.42
2018-10-16T08:54:31.572Z,73.18
2018-10-16T08:56:59.839Z,73.39
2018-10-16T08:59:28.091Z,73.31
2018-10-16T09:01:56.504Z,72.30
2018-10-16T09:04:24.692Z,72.13
2018-10-16T09:06:52.898Z,70.97
2018-10-16T09:09:21.073Z,70.85
2018-10-16T09:11:49.627Z,71.08
2018-10-16T09:14:18.166Z,70.97
2018-10-16T09:16:46.436Z,70.05
2018-10-16T09:19:14.743Z,69.44
2018-10-16T09:21:43.639Z,68.15
2018-10-16T09:24:11.794Z,68.47
2018-10-16T09:26:39.993Z,67.72
2018-10-16T09:29:08.212Z,66.46
2018-10-16T09:31:36.490Z,66.14
2018-10-16T09:34:04.635Z,65.53
2018-10-16T09:36:32.839Z,63.92
2018-10-16T09:39:01.221Z,63.68
2018-10-16T09:41:29.629Z,63.39
2018-10-16T09:43:57.914Z,63.19
2018-10-16T09:46:26.307Z,62.23
2018-10-16T09:48:54.642Z,61.85
2018-10-16T09:51:22.882Z,60.86
2018-10-16T09:53:51.059Z,59.76
2018-10-16T09:56:19.358Z,58.66
2018-10-16T09:58:47.655Z,59.20
2018-10-16T10:01:21.073Z,59.26
2018-10-16T10:03:49.236Z,58.85
2018-10-16T10:06:17.535Z,59.59
2018-10-16T10:08:45.665Z,58.26
2018-10-16T10:11:14.045Z,58.97
2018-10-16T10:13:42.539Z,58.48
2018-10-16T10:16:10.732Z,55.99
2018-10-16T10:18:39.217Z,56.99
2018-10-16T10:21:07.687Z,57.42
2018-10-16T10:23:35.997Z,56.59
2018-10-16T10:26:04.365Z,55.15
2018-10-16T10:28:32.736Z,54.61
2018-10-16T10:31:01.133Z,55.01
2018-10-16T10:33:29.443Z,52.92
2018-10-16T10:35:57.620Z,52.94
2018-10-16T10:38:26.058Z,53.98
2018-10-16T10:40:54.469Z,52.42
2018-10-16T10:43:22.857Z,51.84
2018-10-16T10:45:51.340Z,51.02
2018-10-16T10:48:19.750Z,49.62
2018-10-16T10:50:48.354Z,49.83
2018-10-16T10:53:17.358Z,50.19
2018-10-16T10:55:45.754Z,50.22
2018-10-16T10:58:14.043Z,49.90
2018-10-16T11:00:42.483Z,48.99
2018-10-16T11:03:10.921Z,48.72
2018-10-16T11:05:39.293Z,49.37
2018-10-16T11:08:07.445Z,48.81
2018-10-16T11:10:35.768Z,48.25
2018-10-16T11:13:04.063Z,49.20
2018-10-16T11:15:32.457Z,47.22
2018-10-16T11:18:00.915Z,46.04
2018-10-16T11:20:29.256Z,45.40
2018-10-16T11:22:57.736Z,44.78
2018-10-16T11:25:25.948Z,44.55
2018-10-16T11:27:54.188Z,41.63
2018-10-16T11:30:22.785Z,42.37
2018-10-16T11:32:51.202Z,41.35
2018-10-16T11:35:19.600Z,41.90
2018-10-16T11:37:48.000Z,41.73
2018-10-16T11:40:16.626Z,41.26
2018-10-16T11:42:44.771Z,41.80
2018-10-16T11:45:13.141Z,40.00
2018-10-16T11:47:41.475Z,39.92
2018-10-16T11:50:10.911Z,39.14
2018-10-16T11:52:45.677Z,39.51
2018-10-16T11:55:13.979Z,39.14
2018-10-16T11:57:42.491Z,39.20
2018-10-16T12:00:13.709Z,38.68
2018-10-16T12:02:42.366Z,38.51
2018-10-16T12:05:11.139Z,37.78
2018-10-16T12:07:39.567Z,40.12
2018-10-16T12:10:08.047Z,39.02
2018-10-16T12:12:36.490Z,36.97
2018-10-16T12:15:04.972Z,37.11
2018-10-16T12:17:38.528Z,37.30
2018-10-16T12:20:11.240Z,37.62
2018-10-16T12:22:39.825Z,37.23
2018-10-16T12:25:08.479Z,37.41
2018-10-16T12:27:36.994Z,37.34
2018-10-16T12:30:05.967Z,37.27
2018-10-16T12:32:34.205Z,37.37
2018-10-16T12:35:02.506Z,37.39
2018-10-16T12:37:30.669Z,37.03
2018-10-16T12:39:58.994Z,36.91
2018-10-16T12:42:27.572Z,37.06
2018-10-16T12:44:56.003Z,36.76
2018-10-16T12:47:24.432Z,36.24
2018-10-16T12:49:52.716Z,37.05
2018-10-16T12:52:21.288Z,37.28
2018-10-16T12:54:49.416Z,37.03
2018-10-16T12:57:17.788Z,36.50
2018-10-16T12:59:46.100Z,36.20
2018-10-16T13:02:14.379Z,36.91
2018-10-16T13:04:42.566Z,36.41
2018-10-16T13:07:15.116Z,36.55
2018-10-16T13:09:43.444Z,37.15
2018-10-16T13:12:12.145Z,36.57
2018-10-16T13:14:40.576Z,35.59
2018-10-16T13:17:09.087Z,35.39
2018-10-16T13:19:37.796Z,34.96
2018-10-16T13:22:06.297Z,35.37
2018-10-16T13:24:34.765Z,35.06
2018-10-16T13:27:03.242Z,35.69
2018-10-16T13:29:31.879Z,34.90
2018-10-16T13:32:00.327Z,34.28
2018-10-16T13:34:28.790Z,33.38
2018-10-16T13:36:57.290Z,33.80
2018-10-16T13:39:25.727Z,34.35
2018-10-16T13:41:54.827Z,34.92
2018-10-16T13:44:23.364Z,35.64
2018-10-16T13:46:51.774Z,34.16
2018-10-16T13:49:20.670Z,33.96
2018-10-16T13:51:49.102Z,34.13
2018-10-16T13:54:17.617Z,34.56
2018-10-16T13:56:45.980Z,34.35
2018-10-16T13:59:14.513Z,34.17
2018-10-16T14:01:43.079Z,33.85
2018-10-16T14:04:11.589Z,33.95
2018-10-16T14:06:40.096Z,34.94
2018-10-16T14:09:08.783Z,34.16
2018-10-16T14:11:37.274Z,33.80
2018-10-16T14:14:05.905Z,33.78
2018-10-16T14:16:34.198Z,34.51
2018-10-16T14:19:02.507Z,35.27
2018-10-16T14:21:30.904Z,34.96
2018-10-16T14:23:59.389Z,34.54
2018-10-16T14:26:27.877Z,35.08
2018-10-16T14:28:56.656Z,35.37
2018-10-16T14:31:25.046Z,34.15
2018-10-16T14:33:53.523Z,34.67
2018-10-16T14:36:21.639Z,35.11
2018-10-16T14:38:50.081Z,34.92
2018-10-16T14:41:18.726Z,34.44
2018-10-16T14:43:47.123Z,34.07
2018-10-16T14:46:15.440Z,34.06
2018-10-16T14:48:43.698Z,34.55
2018-10-16T14:51:11.903Z,34.85
2018-10-16T14:53:40.254Z,35.03
2018-10-16T14:56:08.624Z,35.08
2018-10-16T14:58:37.076Z,35.74
2018-10-16T15:01:05.724Z,35.27
2018-10-16T15:03:33.963Z,35.47
2018-10-16T15:06:02.248Z,35.67
2018-10-16T15:08:31.451Z,35.91
2018-10-16T15:10:59.920Z,35.77
2018-10-16T15:13:28.422Z,35.84
2018-10-16T15:15:57.017Z,35.48
2018-10-16T15:18:25.332Z,35.99
2018-10-16T15:20:53.790Z,36.04
2018-10-16T15:23:22.262Z,35.95
2018-10-16T15:25:50.447Z,36.45
2018-10-16T15:28:18.768Z,36.94
2018-10-16T15:30:47.241Z,37.16
2018-10-16T15:33:15.603Z,36.38
2018-10-16T15:35:44.222Z,37.31
2018-10-16T15:38:12.636Z,38.16
2018-10-16T15:40:40.944Z,37.93
2018-10-16T15:43:09.379Z,37.90
2018-10-16T15:45:37.726Z,38.24
2018-10-16T15:48:06.329Z,38.46
2018-10-16T15:50:34.638Z,39.38
2018-10-16T15:53:02.766Z,39.14
2018-10-16T15:55:31.288Z,39.57
2018-10-16T15:57:59.794Z,39.64
2018-10-16T16:00:28.127Z,39.91
2018-10-16T16:02:56.248Z,40.37
2018-10-16T16:05:24.740Z,40.65
2018-10-16T16:07:53.226Z,41.75
2018-10-16T16:10:21.670Z,42.58
2018-10-16T16:12:50.144Z,42.35
2018-10-16T16:15:18.380Z,43.59
2018-10-16T16:17:46.890Z,44.15
2018-10-16T16:20:16.320Z,44.95
2018-10-16T16:22:45.105Z,44.87
2018-10-16T16:25:14.568Z,44.60
2018-10-16T16:27:43.034Z,45.62
2018-10-16T16:30:13.905Z,46.21
2018-10-16T16:32:41.998Z,46.33
2018-10-16T16:35:10.575Z,46.02
2018-10-16T16:37:38.929Z,45.58
2018-10-16T16:40:09.216Z,45.82
2018-10-16T16:42:37.550Z,46.12
2018-10-16T16:45:06.702Z,46.18
2018-10-16T16:47:34.944Z,46.62
2018-10-16T16:50:03.761Z,47.46
2018-10-16T16:52:32.098Z,48.00
2018-10-16T16:55:00.945Z,49.27
2018-10-16T16:57:29.095Z,49.26
2018-10-16T16:59:57.480Z,49.68
2018-10-16T17:02:25.753Z,49.63
2018-10-16T17:04:54.305Z,49.88
2018-10-16T17:07:22.795Z,50.20
2018-10-16T17:09:51.225Z,51.73
2018-10-16T17:12:19.572Z,51.40
2018-10-16T17:14:47.979Z,51.90
2018-10-16T17:17:16.182Z,52.21
2018-10-16T17:19:44.451Z,52.57
2018-10-16T17:22:12.912Z,53.28
2018-10-16T17:24:41.087Z,53.22
2018-10-16T17:27:09.491Z,53.48
2018-10-16T17:29:37.805Z,53.69
2018-10-16T17:32:05.936Z,53.78
2018-10-16T17:34:34.280Z,54.13
2018-10-16T17:37:02.655Z,54.50
2018-10-16T17:44:24.872Z,56.76
2018-10-16T17:46:53.004Z,57.71
2018-10-16T17:49:21.144Z,57.93
2018-10-16T17:51:49.280Z,58.92
2018-10-16T17:54:17.518Z,59.49
2018-10-16T17:56:45.797Z,59.28
2018-10-16T17:59:13.981Z,59.88
2018-10-16T18:01:42.433Z,59.65
2018-10-16T18:04:10.619Z,60.18
2018-10-16T18:06:39.076Z,60.08
2018-10-16T18:09:07.980Z,60.03
2018-10-16T18:11:36.219Z,60.75
2018-10-16T18:14:04.832Z,61.11
2018-10-16T18:16:33.164Z,62.09
2018-10-16T18:19:01.405Z,61.20
2018-10-16T18:21:29.803Z,62.37
2018-10-16T18:23:58.156Z,63.60
2018-10-16T18:26:26.331Z,63.71
2018-10-16T18:28:54.489Z,64.81
2018-10-16T18:31:22.752Z,65.21
2018-10-16T18:33:50.944Z,65.91
2018-10-16T18:36:19.191Z,65.96
2018-10-16T18:38:47.572Z,66.00
2018-10-16T18:41:15.809Z,66.04
2018-10-16T18:43:44.197Z,67.11
2018-10-16T18:46:12.389Z,67.10
2018-10-16T18:48:40.652Z,67.09
2018-10-16T18:51:09.693Z,67.37
2018-10-16T18:53:37.784Z,67.45
2018-10-16T18:56:05.959Z,67.45
2018-10-16T18:58:34.378Z,67.74
2018-10-16T19:01:02.624Z,67.45
2018-10-16T19:03:30.799Z,67.15
2018-10-16T19:05:58.958Z,67.35
2018-10-16T19:08:27.252Z,67.88
2018-10-16T19:10:55.432Z,68.01
2018-10-16T19:13:23.657Z,68.24
2018-10-16T19:15:51.939Z,67.93
2018-10-16T19:18:20.111Z,68.16
2018-10-16T19:20:48.524Z,69.21
2018-10-16T19:23:17.002Z,69.17
2018-10-16T19:25:45.196Z,69.01
2018-10-16T19:28:13.376Z,68.50
2018-10-16T19:30:41.864Z,68.81
2018-10-16T19:33:10.104Z,68.80
2018-10-16T19:35:38.266Z,70.20
2018-10-16T19:38:06.636Z,71.22
2018-10-16T19:40:35.561Z,71.51
2018-10-16T19:43:03.773Z,71.99
2018-10-16T19:45:31.964Z,72.29
2018-10-16T19:48:00.089Z,71.23
2018-10-16T19:50:28.215Z,71.42
2018-10-16T19:52:56.459Z,71.93
2018-10-16T19:55:24.606Z,71.87
2018-10-16T19:57:52.872Z,72.15
2018-10-16T20:00:21.098Z,72.77
2018-10-16T20:02:49.333Z,72.73
2018-10-16T20:05:17.514Z,72.85
2018-10-16T20:07:45.883Z,73.58
2018-10-16T20:10:14.301Z,74.73
2018-10-16T20:12:42.659Z,75.02
2018-10-16T20:15:11.932Z,74.46
2018-10-16T20:17:40.194Z,74.83
2018-10-16T20:20:09.130Z,75.24
2018-10-16T20:22:37.553Z,75.09
2018-10-16T20:25:06.511Z,75.17
2018-10-16T20:27:34.915Z,75.73
2018-10-16T20:30:03.172Z,74.87
2018-10-16T20:32:31.534Z,75.21
2018-10-16T20:35:02.704Z,74.63
2018-10-16T20:37:31.076Z,75.31
2018-10-16T20:39:59.468Z,76.00
2018-10-16T20:42:27.872Z,76.65
2018-10-16T20:44:56.201Z,77.19
2018-10-16T20:47:24.565Z,77.62
2018-10-16T20:49:52.687Z,78.19
2018-10-16T20:52:20.828Z,78.13
2018-10-16T20:54:49.054Z,78.96
2018-10-16T20:57:17.366Z,77.93
2018-10-16T20:59:46.537Z,77.63
2018-10-16T21:02:14.743Z,78.02
2018-10-16T21:04:42.919Z,78.22
2018-10-16T21:07:11.057Z,79.45
2018-10-16T21:09:39.474Z,80.11
2018-10-16T21:12:08.309Z,79.50
2018-10-16T21:14:36.760Z,78.23
2018-10-16T21:17:05.076Z,77.86
2018-10-16T21:19:33.450Z,77.86
2018-10-16T21:22:01.747Z,78.19
2018-10-16T21:24:29.927Z,79.14
2018-10-16T21:27:07.058Z,80.34
2018-10-16T21:29:35.577Z,80.21
2018-10-16T21:32:04.041Z,80.84
2018-10-16T21:34:32.187Z,80.62
2018-10-16T21:37:00.491Z,81.46
2018-10-16T21:39:28.659Z,81.70
2018-10-16T21:41:56.787Z,81.48
2018-10-16T21:44:25.009Z,82.93
2018-10-16T21:46:53.588Z,82.87
2018-10-16T21:49:22.468Z,82.28
2018-10-16T21:51:50.947Z,82.84
2018-10-16T21:54:19.127Z,82.72
2018-10-16T21:56:47.435Z,82.67
2018-10-16T22:02:49.556Z,82.39
2018-10-16T22:05:24.516Z,82.19
2018-10-16T22:07:54.453Z,82.27
2018-10-16T22:10:23.031Z,82.42
2018-10-16T22:12:51.497Z,81.94
2018-10-16T22:15:20.441Z,82.29
2018-10-16T22:17:48.907Z,82.63
2018-10-16T22:20:17.075Z,82.97
2018-10-16T22:22:46.001Z,83.04
2018-10-16T22:25:14.985Z,84.00
2018-10-16T22:27:43.260Z,83.96
2018-10-16T22:30:11.459Z,83.77
2018-10-16T22:32:40.515Z,83.59
2018-10-16T22:35:10.108Z,84.32
2018-10-16T22:37:38.391Z,85.57
2018-10-16T22:40:07.591Z,85.05
2018-10-16T22:42:36.206Z,85.72
2018-10-16T22:45:04.625Z,85.91
2018-10-16T22:47:32.800Z,86.46
2018-10-16T22:50:00.992Z,86.76
2018-10-16T22:52:29.136Z,87.32
2018-10-16T22:54:57.288Z,87.14
2018-10-16T22:57:25.438Z,87.75
2018-10-16T22:59:53.662Z,87.76
2018-10-16T23:02:21.940Z,88.06
2018-10-16T23:04:50.677Z,87.66
2018-10-16T23:07:18.920Z,88.00
2018-10-16T23:09:47.247Z,87.95
2018-10-16T23:12:15.503Z,88.05
2018-10-16T23:14:43.711Z,87.59
2018-10-16T23:17:12.028Z,87.76
2018-10-16T23:19:40.285Z,88.66
2018-10-16T23:22:08.568Z,88.08
2018-10-16T23:24:36.732Z,87.90
2018-10-16T23:27:05.441Z,87.25
2018-10-16T23:29:33.611Z,87.36
2018-10-16T23:32:02.036Z,86.90
2018-10-16T23:34:30.404Z,87.51
2018-10-16T23:36:58.636Z,87.42
2018-10-16T23:39:26.782Z,88.33
2018-10-16T23:41:55.003Z,88.59
2018-10-16T23:44:23.159Z,89.35
2018-10-16T23:46:51.456Z,89.22
2018-10-16T23:49:19.629Z,89.04
2018-10-16T23:51:47.817Z,88.88
2018-10-16T23:54:15.951Z,89.39
2018-10-16T23:56:44.232Z,90.60
2018-10-16T23:59:13.533Z,90.38
